Time;durP1;ratioP1;P1;durP2;ratioP2;P2;SDS_P1;SDS_P2;PMS_P1;PMS_P2;Temp;Humidity;BMP_temperature;BMP_pressure;BME280_temperature;BME280_humidity;BME280_pressure;Samples;Min_cycle;Max_cycle;Signal;HPM_P1;HPM_P2
2023/06/06 00:01:25;;;;;;;8.30;4.15;;;11.20;99.90;;;;;;5054598;28;20516;-83
2023/06/06 00:03:52;;;;;;;9.18;4.65;;;11.20;99.90;;;;;;5071059;28;20094;-83
2023/06/06 00:06:20;;;;;;;8.45;4.60;;;11.20;99.90;;;;;;5074476;28;20442;-83
2023/06/06 00:08:48;;;;;;;9.27;4.30;;;11.20;99.90;;;;;;5074493;28;20701;-83
2023/06/06 00:11:15;;;;;;;7.38;3.97;;;11.20;99.90;;;;;;5074500;28;20405;-83
2023/06/06 00:13:42;;;;;;;9.70;4.35;;;11.10;99.90;;;;;;5074450;28;20041;-82
2023/06/06 00:16:10;;;;;;;8.75;4.35;;;11.10;99.90;;;;;;5090680;28;20045;-83
2023/06/06 00:18:38;;;;;;;11.23;4.22;;;11.10;99.90;;;;;;5090683;28;20066;-83
2023/06/06 00:21:05;;;;;;;10.18;4.60;;;11.10;99.90;;;;;;5090037;28;20487;-82
2023/06/06 00:23:32;;;;;;;8.45;3.67;;;11.10;99.90;;;;;;5073992;28;20052;-83
2023/06/06 00:25:59;;;;;;;7.68;4.07;;;11.00;99.90;;;;;;5073561;28;20121;-83
2023/06/06 00:28:25;;;;;;;7.35;3.78;;;11.00;99.90;;;;;;5090706;28;20477;-83
2023/06/06 00:30:52;;;;;;;10.63;4.03;;;11.00;99.90;;;;;;5073443;28;20047;-83
2023/06/06 00:33:18;;;;;;;10.25;4.10;;;11.00;99.90;;;;;;5090235;28;20037;-83
2023/06/06 00:35:45;;;;;;;9.00;4.00;;;11.00;99.90;;;;;;5090534;28;20135;-83
2023/06/06 00:38:12;;;;;;;11.07;4.05;;;11.00;99.90;;;;;;5090241;28;20106;-83
2023/06/06 00:40:38;;;;;;;11.43;4.10;;;11.00;99.90;;;;;;5074158;28;20044;-83
2023/06/06 00:43:05;;;;;;;7.75;4.10;;;11.00;99.90;;;;;;5090357;28;20051;-83
2023/06/06 00:45:32;;;;;;;8.38;4.07;;;11.00;99.90;;;;;;5073469;28;20041;-83
2023/06/06 00:47:59;;;;;;;10.68;4.65;;;11.00;99.90;;;;;;5036934;28;20059;-83
2023/06/06 00:50:26;;;;;;;10.82;4.03;;;11.00;99.90;;;;;;5070555;28;20079;-83
2023/06/06 00:52:55;;;;;;;10.00;4.53;;;11.00;99.90;;;;;;5037543;28;20040;-83
2023/06/06 00:55:22;;;;;;;13.25;4.20;;;11.00;99.90;;;;;;5069578;28;20492;-83
2023/06/06 00:57:51;;;;;;;7.32;3.97;;;11.00;99.90;;;;;;5038576;28;20041;-83
2023/06/06 01:00:18;;;;;;;11.50;5.07;;;11.00;99.90;;;;;;5069669;28;20516;-83
2023/06/06 01:02:47;;;;;;;14.38;5.18;;;11.00;99.90;;;;;;5053772;28;20049;-83
2023/06/06 01:05:20;;;;;;;11.38;5.03;;;11.00;99.90;;;;;;5037315;28;20592;-83
2023/06/06 01:07:53;;;;;;;10.60;5.00;;;11.00;99.90;;;;;;5069940;28;20048;-83
2023/06/06 01:10:21;;;;;;;10.82;5.38;;;11.00;99.90;;;;;;5054279;28;20045;-83
2023/06/06 01:13:24;;;;;;;12.35;5.70;;;11.00;99.90;;;;;;5047504;28;20134;-83
2023/06/06 01:16:05;;;;;;;9.98;5.00;;;11.00;99.90;;;;;;5089836;28;20079;-83
2023/06/06 01:18:33;;;;;;;10.45;5.07;;;11.00;99.90;;;;;;5090090;28;20083;-83
2023/06/06 01:21:01;;;;;;;12.20;4.60;;;11.00;99.90;;;;;;5105914;28;20044;-82
2023/06/06 01:23:30;;;;;;;9.18;4.68;;;11.00;99.90;;;;;;5072692;28;20056;-83
2023/06/06 01:25:56;;;;;;;10.98;4.60;;;11.00;99.90;;;;;;5089903;28;20041;-83
2023/06/06 01:28:25;;;;;;;9.48;4.65;;;11.00;99.90;;;;;;5072735;28;20044;-83
2023/06/06 01:30:51;;;;;;;10.02;5.28;;;11.00;99.90;;;;;;5106146;28;20044;-83
2023/06/06 01:33:29;;;;;;;12.63;6.15;;;11.00;99.90;;;;;;5069380;28;20405;-83
2023/06/06 01:36:14;;;;;;;17.25;7.70;;;11.00;99.90;;;;;;5069306;28;20468;-83
2023/06/06 01:38:47;;;;;;;24.83;9.95;;;11.00;99.90;;;;;;5081305;28;20044;-83
2023/06/06 01:41:19;;;;;;;19.27;11.43;;;11.00;99.90;;;;;;5088972;28;20797;-83
2023/06/06 01:43:49;;;;;;;22.85;12.63;;;11.00;99.90;;;;;;5089527;28;20492;-83
2023/06/06 01:46:17;;;;;;;20.80;12.18;;;11.00;99.90;;;;;;5088843;28;20044;-83
2023/06/06 01:48:45;;;;;;;19.90;11.73;;;11.00;99.90;;;;;;5081997;28;20039;-83
2023/06/06 01:51:12;;;;;;;27.15;11.90;;;11.00;99.90;;;;;;5052520;28;20037;-83
2023/06/06 01:53:39;;;;;;;27.55;12.63;;;11.00;99.90;;;;;;5052605;28;20512;-83
2023/06/06 01:56:12;;;;;;;23.73;13.63;;;11.00;99.90;;;;;;5036410;28;20045;-83
2023/06/06 01:58:41;;;;;;;20.83;14.00;;;11.00;99.90;;;;;;5069142;28;20049;-83
2023/06/06 02:01:08;;;;;;;30.80;17.02;;;11.00;99.90;;;;;;5060001;28;20474;-82
2023/06/06 02:03:36;;;;;;;32.35;18.50;;;11.00;99.90;;;;;;5072438;28;20044;-83
2023/06/06 02:06:04;;;;;;;34.00;21.38;;;11.00;99.90;;;;;;5072631;28;20404;-83
2023/06/06 02:08:31;;;;;;;33.30;20.33;;;11.00;99.90;;;;;;5058971;28;20128;-83
2023/06/06 02:10:58;;;;;;;32.90;17.98;;;11.00;99.90;;;;;;5060078;28;20127;-83
2023/06/06 02:13:25;;;;;;;29.55;17.63;;;10.90;99.90;;;;;;5076248;28;20037;-83
2023/06/06 02:15:52;;;;;;;29.25;18.48;;;11.00;99.90;;;;;;5076722;28;20127;-83
2023/06/06 02:18:19;;;;;;;25.75;15.75;;;11.00;99.90;;;;;;5093132;28;20052;-82
2023/06/06 02:20:45;;;;;;;24.20;13.68;;;10.90;99.90;;;;;;5059890;28;20049;-82
2023/06/06 02:23:12;;;;;;;22.77;12.30;;;10.90;99.90;;;;;;5092647;28;20094;-83
2023/06/06 02:25:39;;;;;;;15.82;8.70;;;10.90;99.90;;;;;;5092795;28;20040;-82
2023/06/06 02:28:07;;;;;;;15.43;7.53;;;10.90;99.90;;;;;;5060022;28;20048;-82
2023/06/06 02:30:34;;;;;;;16.67;7.00;;;10.90;99.90;;;;;;5059969;28;20115;-82
2023/06/06 02:33:01;;;;;;;13.93;6.15;;;10.90;99.90;;;;;;5092685;28;20154;-83
2023/06/06 02:35:28;;;;;;;7.93;4.30;;;10.90;99.90;;;;;;5059724;28;20040;-82
2023/06/06 02:37:55;;;;;;;10.85;5.05;;;10.80;99.90;;;;;;5092917;28;20401;-83
2023/06/06 02:40:21;;;;;;;10.88;4.70;;;10.80;99.90;;;;;;5092494;28;20041;-82
2023/06/06 02:42:48;;;;;;;14.32;4.80;;;10.80;99.90;;;;;;5059562;28;20040;-82
2023/06/06 02:45:15;;;;;;;9.98;4.82;;;10.80;99.90;;;;;;5092221;28;20052;-81
2023/06/06 02:47:42;;;;;;;9.30;4.68;;;10.80;99.90;;;;;;5056537;28;20032;-82
2023/06/06 02:50:10;;;;;;;12.23;4.85;;;10.80;99.90;;;;;;5056036;28;20148;-82
2023/06/06 02:52:38;;;;;;;11.40;5.22;;;10.80;99.90;;;;;;5071625;28;20040;-82
2023/06/06 02:55:05;;;;;;;10.82;4.88;;;10.80;99.90;;;;;;5088546;28;20493;-83
2023/06/06 02:57:33;;;;;;;11.93;5.28;;;10.80;99.90;;;;;;5074669;28;20037;-83
2023/06/06 03:00:00;;;;;;;11.98;5.38;;;10.80;99.90;;;;;;5058723;28;20123;-82
2023/06/06 03:02:27;;;;;;;12.77;5.32;;;10.80;99.90;;;;;;5092052;28;20451;-82
2023/06/06 03:04:55;;;;;;;10.73;4.80;;;10.80;99.90;;;;;;5071510;28;20041;-82
2023/06/06 03:07:22;;;;;;;11.13;4.68;;;10.90;99.90;;;;;;5075286;28;20040;-83
2023/06/06 03:09:49;;;;;;;10.57;4.82;;;10.90;99.90;;;;;;5071809;28;20040;-82
2023/06/06 03:12:15;;;;;;;10.80;5.00;;;10.90;99.90;;;;;;5055095;28;20087;-82
2023/06/06 03:14:42;;;;;;;10.35;4.22;;;10.80;99.90;;;;;;5047135;28;20089;-82
2023/06/06 03:17:09;;;;;;;10.05;4.35;;;10.90;99.90;;;;;;5038607;28;20151;-82
2023/06/06 03:19:35;;;;;;;14.35;5.10;;;10.80;99.90;;;;;;5038253;28;20375;-82
2023/06/06 03:22:02;;;;;;;13.48;5.28;;;10.80;99.90;;;;;;5055868;28;20135;-82
2023/06/06 03:24:29;;;;;;;9.38;4.72;;;10.90;99.90;;;;;;5040380;28;20432;-82
2023/06/06 03:26:56;;;;;;;12.98;4.90;;;10.80;99.90;;;;;;5075192;28;20040;-82
2023/06/06 03:29:23;;;;;;;10.48;4.70;;;10.80;99.90;;;;;;5074912;28;20036;-82
2023/06/06 03:31:49;;;;;;;9.15;4.45;;;10.80;99.90;;;;;;5058608;28;20040;-82
2023/06/06 03:34:16;;;;;;;13.40;4.50;;;10.90;99.90;;;;;;5059047;28;20120;-83
2023/06/06 03:36:43;;;;;;;10.57;4.57;;;10.80;99.90;;;;;;5091545;28;20828;-82
2023/06/06 03:39:10;;;;;;;9.88;4.60;;;10.90;99.90;;;;;;5058464;28;20037;-82
2023/06/06 03:41:37;;;;;;;10.88;4.65;;;10.90;99.90;;;;;;5091424;28;20055;-82
2023/06/06 03:44:03;;;;;;;11.38;4.47;;;10.90;99.90;;;;;;5058076;28;20044;-82
2023/06/06 03:46:30;;;;;;;11.20;4.70;;;10.80;99.90;;;;;;5074440;28;20044;-83
2023/06/06 03:48:57;;;;;;;14.95;5.05;;;10.90;99.90;;;;;;5074525;28;20154;-82
2023/06/06 03:51:24;;;;;;;13.55;4.85;;;10.80;99.90;;;;;;5074562;28;20041;-82
2023/06/06 03:53:51;;;;;;;13.80;5.10;;;10.90;99.90;;;;;;5053922;28;20715;-82
2023/06/06 03:56:18;;;;;;;10.23;4.93;;;10.90;99.90;;;;;;5037896;28;20041;-82
2023/06/06 03:58:46;;;;;;;14.00;5.38;;;10.90;99.90;;;;;;5070883;28;20041;-82
2023/06/06 04:01:14;;;;;;;14.73;5.65;;;10.90;99.90;;;;;;5038995;28;20037;-82
2023/06/06 04:03:42;;;;;;;9.95;5.13;;;10.90;99.90;;;;;;5054449;28;20076;-82
2023/06/06 04:06:09;;;;;;;15.20;5.25;;;10.90;99.90;;;;;;5054481;28;20053;-82
2023/06/06 04:08:35;;;;;;;11.95;4.50;;;10.90;99.90;;;;;;5054419;28;20781;-83
2023/06/06 04:11:02;;;;;;;13.40;5.30;;;11.00;99.90;;;;;;5038202;28;20040;-82
2023/06/06 04:13:29;;;;;;;10.55;5.13;;;11.00;99.90;;;;;;5037843;28;20043;-82
2023/06/06 04:15:55;;;;;;;12.90;4.95;;;11.00;99.90;;;;;;5054342;28;20051;-83
2023/06/06 04:18:22;;;;;;;14.38;5.10;;;11.00;99.90;;;;;;5054053;28;20037;-83
2023/06/06 04:20:49;;;;;;;12.85;5.20;;;11.00;99.90;;;;;;5070255;28;20517;-83
2023/06/06 04:23:15;;;;;;;14.68;5.15;;;11.00;99.90;;;;;;5037790;28;20405;-83
2023/06/06 04:25:42;;;;;;;13.90;4.90;;;11.00;99.90;;;;;;5053427;28;20045;-82
2023/06/06 04:28:09;;;;;;;15.93;6.15;;;11.00;99.90;;;;;;5053717;28;20397;-83
2023/06/06 04:30:36;;;;;;;14.20;5.07;;;11.00;99.90;;;;;;5053493;28;20481;-83
2023/06/06 04:33:05;;;;;;;9.30;4.82;;;11.10;99.90;;;;;;5054234;28;20044;-83
2023/06/06 04:35:31;;;;;;;11.77;4.93;;;11.10;99.90;;;;;;5037867;28;20493;-82
2023/06/06 04:37:58;;;;;;;12.48;4.90;;;11.10;99.90;;;;;;5053848;28;20047;-83
2023/06/06 04:40:32;;;;;;;16.85;5.22;;;11.20;99.90;;;;;;5037333;28;20127;-83
2023/06/06 04:43:01;;;;;;;12.77;5.35;;;11.20;99.90;;;;;;5039434;28;20129;-83
2023/06/06 04:45:27;;;;;;;14.45;5.25;;;11.20;99.90;;;;;;5037707;28;20037;-83
2023/06/06 04:47:55;;;;;;;13.55;4.20;;;11.20;99.90;;;;;;5069862;28;20041;-82
2023/06/06 04:50:23;;;;;;;14.52;4.75;;;11.20;99.90;;;;;;5037643;28;20515;-83
2023/06/06 04:52:49;;;;;;;12.13;4.40;;;11.20;99.90;;;;;;5037588;28;20103;-83
2023/06/06 04:55:18;;;;;;;14.07;4.80;;;11.30;99.90;;;;;;5069775;28;20037;-82
2023/06/06 04:57:44;;;;;;;11.13;4.00;;;11.30;99.90;;;;;;5086054;28;20601;-83
2023/06/06 05:00:13;;;;;;;10.00;4.00;;;11.30;99.90;;;;;;5073749;28;20144;-82
2023/06/06 05:02:40;;;;;;;14.60;4.63;;;11.30;99.90;;;;;;5059706;28;20406;-83
2023/06/06 05:05:09;;;;;;;14.10;4.80;;;11.30;99.90;;;;;;5069572;28;20041;-83
2023/06/06 05:07:37;;;;;;;10.15;4.40;;;11.30;99.90;;;;;;5069894;28;20037;-83
2023/06/06 05:10:05;;;;;;;11.48;4.55;;;11.30;99.90;;;;;;5069838;28;20720;-83
2023/06/06 05:12:32;;;;;;;11.70;5.07;;;11.30;99.90;;;;;;5086461;28;20656;-83
2023/06/06 05:14:59;;;;;;;14.02;4.55;;;11.40;99.90;;;;;;5089607;28;20174;-82
2023/06/06 05:17:27;;;;;;;11.63;4.53;;;11.40;99.90;;;;;;5089499;28;20044;-83
2023/06/06 05:19:55;;;;;;;11.18;4.65;;;11.50;99.90;;;;;;5056968;28;20045;-83
2023/06/06 05:22:21;;;;;;;15.77;5.40;;;11.50;99.90;;;;;;5072522;28;20048;-82
2023/06/06 05:24:48;;;;;;;11.45;4.43;;;11.50;99.90;;;;;;5088934;28;20064;-82
2023/06/06 05:27:15;;;;;;;11.75;3.83;;;11.60;99.90;;;;;;5056279;28;20040;-83
2023/06/06 05:29:42;;;;;;;10.07;4.53;;;11.60;99.90;;;;;;5056084;28;20048;-82
2023/06/06 05:32:08;;;;;;;15.10;5.18;;;11.70;99.90;;;;;;5066377;28;20040;-82
2023/06/06 05:34:35;;;;;;;12.23;4.10;;;11.70;99.90;;;;;;5065703;28;20032;-83
2023/06/06 05:37:02;;;;;;;14.68;3.95;;;11.80;99.90;;;;;;5072508;28;20088;-83
2023/06/06 05:39:29;;;;;;;10.57;3.95;;;11.80;99.90;;;;;;5072481;28;20439;-83
2023/06/06 05:41:55;;;;;;;11.50;4.00;;;11.80;99.90;;;;;;5068292;28;20064;-83
2023/06/06 05:44:23;;;;;;;11.63;3.88;;;11.80;99.90;;;;;;5052924;28;20041;-83
2023/06/06 05:46:54;;;;;;;8.48;3.75;;;11.80;99.90;;;;;;5085689;28;20156;-82
2023/06/06 05:49:22;;;;;;;10.32;3.60;;;11.90;99.90;;;;;;5102973;28;20052;-83
2023/06/06 05:51:49;;;;;;;9.55;4.35;;;11.90;99.90;;;;;;5069262;28;20037;-82
2023/06/06 05:54:17;;;;;;;8.00;3.53;;;12.00;99.90;;;;;;5053981;28;20144;-83
2023/06/06 05:56:44;;;;;;;11.40;4.13;;;12.10;99.90;;;;;;5057104;28;20496;-82
2023/06/06 05:59:11;;;;;;;8.68;3.65;;;12.10;99.90;;;;;;5067707;28;20460;-82
2023/06/06 06:01:39;;;;;;;8.85;3.67;;;12.20;99.90;;;;;;5085247;28;20052;-83
2023/06/06 06:04:07;;;;;;;7.22;3.63;;;12.30;99.90;;;;;;5072441;28;20453;-82
2023/06/06 06:06:35;;;;;;;8.52;3.25;;;12.30;99.90;;;;;;5088883;28;20386;-82
2023/06/06 06:09:03;;;;;;;10.18;3.50;;;12.40;99.90;;;;;;5088923;28;20032;-83
2023/06/06 06:11:30;;;;;;;11.05;4.07;;;12.40;99.90;;;;;;5089503;28;20042;-83
2023/06/06 06:13:58;;;;;;;8.27;3.83;;;12.50;99.90;;;;;;5072816;28;20041;-82
2023/06/06 06:16:25;;;;;;;8.88;3.63;;;12.50;99.90;;;;;;5056327;28;20442;-83
2023/06/06 06:18:51;;;;;;;10.82;3.85;;;12.50;99.90;;;;;;5072359;28;20036;-83
2023/06/06 06:21:19;;;;;;;10.82;3.22;;;12.50;99.90;;;;;;5072582;28;20043;-83
2023/06/06 06:23:49;;;;;;;12.80;3.60;;;12.50;99.90;;;;;;5089070;28;20113;-83
2023/06/06 06:26:17;;;;;;;10.85;3.72;;;12.50;99.90;;;;;;5055907;28;20123;-83
2023/06/06 06:28:44;;;;;;;10.77;3.53;;;12.90;99.90;;;;;;5072767;28;20028;-83
2023/06/06 06:31:11;;;;;;;6.70;3.25;;;12.70;99.90;;;;;;5070206;28;20040;-83
2023/06/06 06:33:38;;;;;;;8.73;3.25;;;12.80;99.90;;;;;;5093346;28;20115;-83
2023/06/06 06:36:05;;;;;;;8.98;3.78;;;12.90;99.90;;;;;;5042742;28;20051;-83
2023/06/06 06:38:31;;;;;;;12.18;3.45;;;13.00;99.90;;;;;;5085319;28;20047;-83
2023/06/06 06:40:58;;;;;;;10.55;3.67;;;13.10;99.90;;;;;;5052061;28;20044;-83
2023/06/06 06:43:25;;;;;;;6.28;3.65;;;13.10;99.90;;;;;;5084989;28;20044;-83
2023/06/06 06:45:51;;;;;;;9.07;3.50;;;13.10;99.90;;;;;;5068928;28;20069;-83
2023/06/06 06:48:18;;;;;;;6.97;3.40;;;13.10;99.90;;;;;;5068460;28;20041;-83
2023/06/06 06:50:45;;;;;;;9.57;3.65;;;13.20;99.90;;;;;;5052502;28;20036;-83
2023/06/06 06:53:16;;;;;;;8.07;3.47;;;13.20;99.90;;;;;;5047425;28;20041;-83
2023/06/06 06:55:45;;;;;;;10.98;3.95;;;13.30;99.90;;;;;;5057174;28;20045;-83
2023/06/06 06:58:22;;;;;;;9.40;3.90;;;13.30;99.90;;;;;;5055374;28;20037;-84
2023/06/06 07:00:49;;;;;;;8.20;3.60;;;13.40;99.90;;;;;;5078116;28;20076;-83
2023/06/06 07:03:16;;;;;;;14.02;3.70;;;13.40;99.90;;;;;;5056000;28;20076;-84
2023/06/06 07:05:42;;;;;;;15.38;4.47;;;13.50;99.90;;;;;;5039186;28;20041;-84
2023/06/06 07:08:09;;;;;;;11.00;3.63;;;13.50;99.90;;;;;;5039617;28;20041;-84
2023/06/06 07:10:36;;;;;;;10.93;3.55;;;13.60;99.90;;;;;;5039782;28;20053;-84
2023/06/06 07:13:02;;;;;;;12.18;3.83;;;13.60;99.90;;;;;;5039828;28;20048;-84
2023/06/06 07:15:29;;;;;;;11.05;3.22;;;13.60;99.90;;;;;;5092089;28;20032;-84
2023/06/06 07:17:56;;;;;;;10.25;3.75;;;13.70;99.90;;;;;;5075726;28;20048;-84
2023/06/06 07:20:23;;;;;;;9.90;4.00;;;13.70;99.90;;;;;;5072318;28;20045;-83
2023/06/06 07:22:55;;;;;;;10.00;4.03;;;13.70;99.90;;;;;;5048802;28;20040;-83
2023/06/06 07:25:22;;;;;;;12.13;4.00;;;13.80;99.90;;;;;;5091476;28;20098;-83
2023/06/06 07:27:48;;;;;;;8.95;3.58;;;13.80;99.90;;;;;;5075458;28;20044;-84
2023/06/06 07:30:15;;;;;;;12.73;4.18;;;13.90;99.90;;;;;;5075421;28;20040;-84
2023/06/06 07:32:46;;;;;;;11.60;3.85;;;14.00;99.90;;;;;;5081174;28;20110;-84
2023/06/06 07:35:15;;;;;;;10.82;3.60;;;14.00;99.90;;;;;;5108689;28;20040;-83
2023/06/06 07:37:41;;;;;;;13.55;4.18;;;14.10;99.90;;;;;;5107950;28;20033;-84
2023/06/06 07:40:10;;;;;;;9.52;3.90;;;14.20;99.90;;;;;;5047121;28;20094;-84
2023/06/06 07:42:40;;;;;;;14.15;4.03;;;14.40;99.90;;;;;;5071584;28;20573;-83
2023/06/06 07:45:07;;;;;;;10.15;3.63;;;14.50;99.90;;;;;;5090801;28;20047;-84
2023/06/06 07:47:34;;;;;;;8.07;4.05;;;14.60;99.90;;;;;;5091596;28;20396;-83
2023/06/06 07:50:02;;;;;;;11.40;4.20;;;14.80;99.90;;;;;;5063705;28;20041;-84
2023/06/06 07:52:30;;;;;;;10.57;3.72;;;14.90;99.90;;;;;;5054990;28;20052;-83
2023/06/06 07:54:58;;;;;;;9.07;3.58;;;15.00;99.90;;;;;;5055145;28;20794;-84
2023/06/06 07:57:27;;;;;;;13.88;4.20;;;15.10;99.90;;;;;;5054824;28;20501;-84
2023/06/06 07:59:54;;;;;;;8.15;4.32;;;15.20;99.90;;;;;;5038729;28;20052;-84
2023/06/06 08:02:20;;;;;;;10.27;4.18;;;15.30;99.90;;;;;;5087605;28;20156;-83
2023/06/06 08:04:47;;;;;;;11.75;4.45;;;15.40;99.90;;;;;;5056235;28;20136;-84
2023/06/06 08:07:14;;;;;;;8.95;4.10;;;15.60;99.90;;;;;;5054655;28;20041;-84
2023/06/06 08:09:45;;;;;;;8.40;4.10;;;15.60;99.90;;;;;;5074468;28;20033;-84
2023/06/06 08:12:12;;;;;;;9.77;4.30;;;15.80;99.90;;;;;;5090568;28;20040;-80
2023/06/06 08:14:39;;;;;;;12.30;4.43;;;15.90;99.90;;;;;;5073068;28;20045;-81
2023/06/06 08:17:06;;;;;;;12.00;3.97;;;16.00;99.90;;;;;;5090632;28;20044;-83
2023/06/06 08:19:33;;;;;;;10.95;4.45;;;16.10;99.90;;;;;;5090566;28;20395;-84
2023/06/06 08:22:04;;;;;;;8.90;3.85;;;16.10;99.90;;;;;;5107701;28;20094;-85
2023/06/06 08:24:31;;;;;;;9.40;4.07;;;16.20;99.90;;;;;;5106863;28;20052;-84
2023/06/06 08:26:58;;;;;;;9.68;4.60;;;16.30;99.90;;;;;;5070666;28;20055;-84
2023/06/06 08:29:25;;;;;;;9.32;4.07;;;16.40;99.90;;;;;;5053664;28;20047;-84
2023/06/06 08:31:53;;;;;;;10.68;4.05;;;16.40;99.90;;;;;;5070224;28;20079;-84
2023/06/06 08:34:21;;;;;;;8.23;3.85;;;16.60;99.90;;;;;;5070373;28;20079;-84
2023/06/06 08:36:48;;;;;;;8.48;4.00;;;16.70;99.90;;;;;;5070203;28;20045;-84
2023/06/06 08:39:18;;;;;;;8.85;4.05;;;16.80;99.90;;;;;;5060445;28;20040;-84
2023/06/06 08:41:50;;;;;;;8.20;3.80;;;17.00;99.90;;;;;;5090055;28;20044;-84
2023/06/06 08:44:22;;;;;;;9.57;4.30;;;17.10;99.90;;;;;;5089660;28;20082;-83
2023/06/06 08:46:58;;;;;;;8.77;4.20;;;17.10;99.90;;;;;;5084969;28;20040;-84
2023/06/06 08:49:26;;;;;;;8.68;4.10;;;17.20;99.90;;;;;;5069806;28;20472;-84
2023/06/06 08:51:55;;;;;;;9.60;4.40;;;17.20;99.90;;;;;;5057773;28;20036;-84
2023/06/06 08:54:22;;;;;;;11.77;4.45;;;17.20;99.90;;;;;;5087686;28;20045;-83
2023/06/06 08:56:49;;;;;;;8.75;4.28;;;17.30;99.90;;;;;;5062749;28;20144;-83
2023/06/06 08:59:16;;;;;;;10.35;4.13;;;17.40;99.90;;;;;;5086595;28;20071;-83
2023/06/06 09:01:44;;;;;;;9.52;4.10;;;17.50;99.90;;;;;;5053141;28;20402;-83
2023/06/06 09:04:14;;;;;;;8.82;4.22;;;17.60;99.90;;;;;;5092699;28;20548;-83
2023/06/06 09:06:45;;;;;;;11.82;4.25;;;17.70;99.90;;;;;;5053688;28;20040;-83
2023/06/06 09:09:12;;;;;;;7.50;3.90;;;17.70;99.90;;;;;;5052952;28;20079;-84
2023/06/06 09:11:39;;;;;;;11.15;4.43;;;17.80;99.90;;;;;;5069049;28;20127;-84
2023/06/06 09:14:07;;;;;;;10.40;3.95;;;17.80;99.90;;;;;;5053102;28;20445;-84
2023/06/06 09:16:33;;;;;;;10.88;3.92;;;18.00;99.90;;;;;;5068749;28;20164;-83
2023/06/06 09:19:02;;;;;;;10.70;3.78;;;18.10;99.90;;;;;;5069202;28;20549;-84
2023/06/06 09:21:32;;;;;;;10.23;3.75;;;18.10;99.90;;;;;;5076227;28;20048;-83
2023/06/06 09:23:59;;;;;;;10.73;3.70;;;18.20;99.90;;;;;;5105815;28;20065;-84
2023/06/06 09:26:27;;;;;;;9.88;3.40;;;18.30;99.90;;;;;;5071859;28;20050;-83
2023/06/06 09:28:57;;;;;;;9.30;3.60;;;18.30;99.90;;;;;;5056295;28;20532;-83
2023/06/06 09:31:32;;;;;;;9.13;3.65;;;18.40;99.90;;;;;;5088953;28;20040;-84
2023/06/06 09:34:00;;;;;;;9.32;3.50;;;18.40;99.90;;;;;;5069108;28;20033;-83
2023/06/06 09:36:28;;;;;;;6.85;3.35;;;18.50;99.90;;;;;;5068691;28;20041;-83
2023/06/06 09:39:14;;;;;;;11.75;3.90;;;18.70;99.90;;;;;;5052822;28;20041;-83
2023/06/06 09:41:45;;;;;;;12.82;3.70;;;18.70;99.90;;;;;;5065127;28;20052;-84
2023/06/06 09:44:28;;;;;;;9.20;3.70;;;18.90;99.90;;;;;;5102131;28;20041;-84
2023/06/06 09:46:59;;;;;;;10.07;3.83;;;19.00;99.90;;;;;;5069981;28;20037;-86
2023/06/06 09:49:34;;;;;;;11.35;4.25;;;19.10;99.90;;;;;;5053073;28;20064;-84
2023/06/06 09:52:03;;;;;;;8.70;3.92;;;19.20;99.90;;;;;;5070670;28;20041;-83
2023/06/06 09:54:29;;;;;;;10.13;4.68;;;19.20;99.90;;;;;;5089168;28;20500;-84
2023/06/06 09:56:57;;;;;;;8.77;3.50;;;19.30;99.90;;;;;;5073767;28;20059;-83
2023/06/06 09:59:25;;;;;;;10.25;4.10;;;19.50;99.90;;;;;;5070773;28;20720;-82
2023/06/06 10:01:59;;;;;;;10.77;4.30;;;19.60;99.90;;;;;;5071407;28;20041;-82
2023/06/06 10:04:26;;;;;;;10.27;4.10;;;19.70;99.90;;;;;;5101080;28;20037;-83
2023/06/06 10:06:54;;;;;;;9.02;4.25;;;19.80;99.90;;;;;;5103237;28;20048;-82
2023/06/06 10:09:22;;;;;;;9.85;3.53;;;19.90;99.90;;;;;;5102872;28;20052;-83
2023/06/06 10:11:49;;;;;;;9.20;4.18;;;19.90;99.90;;;;;;5056946;28;20075;-84
2023/06/06 10:14:16;;;;;;;11.90;4.70;;;19.90;99.90;;;;;;5061110;28;20048;-82
2023/06/06 10:16:43;;;;;;;13.88;4.93;;;19.90;99.90;;;;;;5052164;28;20049;-84
2023/06/06 10:19:12;;;;;;;6.88;3.72;;;20.00;99.90;;;;;;5053785;28;20045;-84
2023/06/06 10:21:41;;;;;;;10.57;4.85;;;20.00;99.90;;;;;;5070352;28;20056;-83
2023/06/06 10:24:08;;;;;;;12.85;3.83;;;19.90;99.90;;;;;;5061355;28;20095;-83
2023/06/06 10:26:38;;;;;;;11.18;3.83;;;20.10;99.90;;;;;;5071570;28;20049;-82
2023/06/06 10:29:11;;;;;;;9.15;3.72;;;20.10;99.90;;;;;;5090775;28;20044;-82
2023/06/06 10:31:48;;;;;;;11.30;3.75;;;20.10;99.90;;;;;;5092132;28;20094;-83
2023/06/06 10:34:21;;;;;;;9.43;4.03;;;20.10;99.90;;;;;;5103563;28;20516;-83
2023/06/06 10:36:51;;;;;;;11.23;3.75;;;20.10;99.90;;;;;;5108919;28;20427;-84
2023/06/06 10:39:22;;;;;;;9.23;3.97;;;20.10;99.90;;;;;;5088476;28;20051;-84
2023/06/06 10:42:06;;;;;;;9.32;4.47;;;20.10;99.90;;;;;;5103713;28;20521;-83
2023/06/06 10:44:37;;;;;;;10.57;3.95;;;20.20;99.90;;;;;;5088432;28;20037;-83
2023/06/06 10:47:32;;;;;;;8.75;3.80;;;20.30;99.90;;;;;;5066486;28;20044;-81
2023/06/06 10:50:13;;;;;;;10.55;4.10;;;20.20;99.90;;;;;;5072124;28;20033;-82
2023/06/06 10:53:01;;;;;;;10.02;4.20;;;20.30;99.90;;;;;;5071809;28;20401;-84
2023/06/06 10:55:28;;;;;;;14.23;3.92;;;20.30;99.90;;;;;;5081729;28;20054;-84
2023/06/06 10:58:13;;;;;;;9.23;3.28;;;20.20;99.90;;;;;;5091946;28;20036;-84
2023/06/06 11:00:41;;;;;;;7.30;3.75;;;20.30;99.90;;;;;;5091452;28;20041;-84
2023/06/06 11:03:12;;;;;;;7.70;3.80;;;20.30;99.90;;;;;;5071875;28;20037;-84
2023/06/06 11:06:00;;;;;;;8.77;3.97;;;20.40;99.90;;;;;;5099912;28;20049;-84
2023/06/06 11:08:35;;;;;;;11.90;4.35;;;20.50;99.90;;;;;;5071869;28;20041;-84
2023/06/06 11:11:23;;;;;;;8.38;3.97;;;20.50;99.90;;;;;;5055540;28;20044;-84
2023/06/06 11:13:58;;;;;;;9.75;4.00;;;20.60;99.90;;;;;;5088453;28;20063;-84
2023/06/06 11:16:37;;;;;;;10.18;3.80;;;20.50;99.90;;;;;;5083144;28;20048;-84
2023/06/06 11:19:09;;;;;;;11.57;4.38;;;20.50;99.90;;;;;;5092071;28;20593;-84
2023/06/06 11:21:40;;;;;;;9.80;4.10;;;20.50;99.90;;;;;;5091723;28;20039;-83
2023/06/06 11:24:08;;;;;;;9.75;3.90;;;20.40;99.90;;;;;;5091764;28;20057;-84
2023/06/06 11:26:37;;;;;;;7.95;4.25;;;20.40;99.90;;;;;;5091426;28;20043;-84
2023/06/06 11:29:07;;;;;;;11.45;4.22;;;20.30;99.90;;;;;;5107375;28;20036;-84
2023/06/06 11:31:35;;;;;;;8.45;3.78;;;20.20;99.90;;;;;;5090960;28;20044;-84
2023/06/06 11:34:13;;;;;;;7.57;4.00;;;20.20;99.90;;;;;;5071224;28;20032;-84
2023/06/06 11:36:42;;;;;;;8.48;4.13;;;20.30;99.90;;;;;;5094017;28;20036;-84
2023/06/06 11:39:11;;;;;;;10.38;4.38;;;20.20;99.90;;;;;;5080013;28;20512;-83
2023/06/06 11:41:46;;;;;;;10.23;4.22;;;20.20;99.90;;;;;;5070604;28;20040;-83
2023/06/06 11:44:16;;;;;;;9.23;3.90;;;20.30;99.90;;;;;;5055665;28;20478;-83
2023/06/06 11:46:53;;;;;;;9.82;3.92;;;20.30;99.90;;;;;;5078007;28;20118;-83
2023/06/06 11:52:12;;;;;;;13.52;3.90;;;20.40;99.90;;;;;;5108168;28;20114;-83
2023/06/06 11:54:49;;;;;;;8.25;3.70;;;20.30;99.90;;;;;;5073934;28;20420;-83
2023/06/06 11:57:17;;;;;;;10.90;3.70;;;20.20;99.90;;;;;;5090837;28;20056;-84
2023/06/06 11:59:52;;;;;;;11.90;4.10;;;20.10;99.90;;;;;;5066769;28;20119;-84
2023/06/06 12:02:19;;;;;;;12.55;4.25;;;20.10;99.90;;;;;;5072143;28;20048;-84
2023/06/06 12:04:49;;;;;;;6.45;3.55;;;20.00;99.90;;;;;;5053945;28;20132;-84
2023/06/06 12:07:16;;;;;;;7.68;3.63;;;20.00;99.90;;;;;;5054339;28;20123;-84
2023/06/06 12:09:43;;;;;;;10.50;3.80;;;20.10;99.90;;;;;;5070259;28;20041;-84
2023/06/06 12:12:10;;;;;;;11.57;4.30;;;20.20;99.90;;;;;;5061651;28;20547;-83
2023/06/06 12:14:37;;;;;;;12.68;3.72;;;20.30;99.90;;;;;;5087106;28;20142;-83
2023/06/06 12:17:05;;;;;;;10.25;4.13;;;20.30;99.90;;;;;;5070770;28;20080;-83
2023/06/06 12:19:32;;;;;;;7.82;3.47;;;20.30;99.90;;;;;;5112369;28;20131;-83
2023/06/06 12:22:00;;;;;;;14.00;3.72;;;20.40;99.90;;;;;;5090376;28;20086;-82
2023/06/06 12:24:29;;;;;;;10.15;4.85;;;20.40;99.90;;;;;;5106756;28;20143;-83
2023/06/06 12:27:02;;;;;;;11.73;3.72;;;20.30;99.90;;;;;;5089740;28;20101;-82
2023/06/06 12:29:31;;;;;;;13.55;3.80;;;20.30;99.90;;;;;;5090610;28;20493;-82
2023/06/06 12:32:18;;;;;;;12.48;3.63;;;20.20;99.90;;;;;;5106529;28;20443;-83
2023/06/06 12:34:49;;;;;;;12.75;3.72;;;20.20;99.90;;;;;;5089692;28;20032;-82
2023/06/06 12:37:16;;;;;;;11.07;4.22;;;20.20;99.90;;;;;;5106729;28;20404;-83
2023/06/06 12:39:44;;;;;;;10.60;4.05;;;20.10;99.90;;;;;;5077178;28;20047;-82
2023/06/06 12:42:16;;;;;;;10.15;3.60;;;20.00;99.90;;;;;;5053338;28;20043;-83
2023/06/06 12:44:44;;;;;;;8.52;3.53;;;20.00;99.90;;;;;;5053426;28;20049;-82
2023/06/06 12:47:15;;;;;;;10.82;3.42;;;20.00;99.90;;;;;;5053478;28;20047;-82
2023/06/06 12:49:42;;;;;;;8.80;3.78;;;20.20;99.90;;;;;;5062515;28;20040;-82
2023/06/06 12:52:10;;;;;;;9.40;3.80;;;20.10;99.90;;;;;;5088751;28;20605;-82